Address 0x8071d5b2d41edad16cbc2e76323781b607f19925

Overview

My Name Tag:
Not Available

Txn Hash
Block
From
To
Value [Txn Fee]
0x8aa220a14187be0fa57d2d4b44b3819bda88843bd802a1bc7b532e0ec36aff7592079502021-05-27 12:17:4116 days 1 hr ago0x8071d5b2d41edad16cbc2e76323781b607f19925OUT 0xd03c8f89de052256ab1d840cbde7e1e43b59a3450 BNB0.00747293
0x2e5c26c3563d50b8345dfbd15e854e6216dba7da1daaf7be0ba342126d312f2292079472021-05-27 12:17:3216 days 1 hr ago0x8071d5b2d41edad16cbc2e76323781b607f19925OUT 0x50ba517d64caa5e4fc30b8a010a92fdeed468e9b0 BNB0.00029203
0xe6115157c980fdc3a736a4f2bcf9fcf5abc5afcde23720c07b3fcc243cd2230a92065972021-05-27 11:10:0216 days 2 hrs ago0x8071d5b2d41edad16cbc2e76323781b607f19925OUT 0xd03c8f89de052256ab1d840cbde7e1e43b59a3450 BNB0.00773478
0x897c40da7be02f459af52735d9339ca1a7df4c1f4fa132e0a68423e9e0e7fbd092065942021-05-27 11:09:5316 days 2 hrs ago0x8071d5b2d41edad16cbc2e76323781b607f19925OUT 0x50ba517d64caa5e4fc30b8a010a92fdeed468e9b0 BNB0.00029203
0x9cf17b8e2f8e7c0746fb3db9755e84e294fc585759af32dd6617b252942e505f92053082021-05-27 10:05:3516 days 3 hrs ago0x8071d5b2d41edad16cbc2e76323781b607f19925OUT 0xd03c8f89de052256ab1d840cbde7e1e43b59a3450 BNB0.00747293
0x6ef8528921dd7a245bef039281cff3e8af2c38bf2503f3150d9edf40960464de92053062021-05-27 10:05:2916 days 3 hrs ago0x8071d5b2d41edad16cbc2e76323781b607f19925OUT 0x50ba517d64caa5e4fc30b8a010a92fdeed468e9b0 BNB0.00029203
0x1af1b6b84ab38577298b351b851cbcc051928eaa1bde76515e09c95e18992f8392035502021-05-27 8:37:4016 days 4 hrs ago0x8071d5b2d41edad16cbc2e76323781b607f19925OUT 0xd03c8f89de052256ab1d840cbde7e1e43b59a3450 BNB0.00818974
0xbeabaaa2251ceca080c9d82245010d9d38adb599e66a98ad0c75e5cb1781868a92035462021-05-27 8:37:2816 days 4 hrs ago0x8071d5b2d41edad16cbc2e76323781b607f19925OUT 0x50ba517d64caa5e4fc30b8a010a92fdeed468e9b0 BNB0.00029203
0x37965b580c3a43c7dbf4f31518d9015feba87bb7ae893d37e35df806d9995e2092021602021-05-27 7:28:1016 days 6 hrs ago0x8071d5b2d41edad16cbc2e76323781b607f19925OUT 0xd03c8f89de052256ab1d840cbde7e1e43b59a3450 BNB0.00747303
0x6dbf3663594b6df76130fc8eb32ad52b97bdd5d94f82531b7bcf27705f5ebe4592021572021-05-27 7:28:0116 days 6 hrs ago0x8071d5b2d41edad16cbc2e76323781b607f19925OUT 0x50ba517d64caa5e4fc30b8a010a92fdeed468e9b0 BNB0.00029203
0x7746d56195ccafac2bf4869052b930ca46754b7f5ccee0febdb5b95a6b753c3992015372021-05-27 6:57:0116 days 6 hrs ago0x8071d5b2d41edad16cbc2e76323781b607f19925OUT 0xd03c8f89de052256ab1d840cbde7e1e43b59a3450 BNB0.00777887
0x7d6357783b16f510da204950b8b298ae041aa40b862685ec30461dbed0a5c27e92015332021-05-27 6:56:4916 days 6 hrs ago0x8071d5b2d41edad16cbc2e76323781b607f19925OUT 0x50ba517d64caa5e4fc30b8a010a92fdeed468e9b0 BNB0.00029203
0xe73eee25406508da753f6a6046eb1d96a446f375c9d69b68e15537879b8eb8da91994982021-05-27 5:15:0416 days 8 hrs ago0x8071d5b2d41edad16cbc2e76323781b607f19925OUT 0xd03c8f89de052256ab1d840cbde7e1e43b59a3450 BNB0.00777887
0xca9329b470b73df580ba50d8bb89e72ce82404862fa6ee4691bdc2dea1a94be591994942021-05-27 5:14:5216 days 8 hrs ago0x8071d5b2d41edad16cbc2e76323781b607f19925OUT 0x50ba517d64caa5e4fc30b8a010a92fdeed468e9b0 BNB0.00029203
0x3bde7e8d684a24b1bc20a3644953a105adb6d5fc6fbc63fd9c7a0de58ff999fd91968322021-05-27 3:01:4616 days 10 hrs ago0x8071d5b2d41edad16cbc2e76323781b607f19925OUT 0xd03c8f89de052256ab1d840cbde7e1e43b59a3450 BNB0.00821485
0x8afad01dcb9f82829f7e14942ca1f59a65ff8f6e42ba02b750c0d52013b28e9d91968292021-05-27 3:01:3716 days 10 hrs ago0x8071d5b2d41edad16cbc2e76323781b607f19925OUT 0x50ba517d64caa5e4fc30b8a010a92fdeed468e9b0 BNB0.00029203
0x74ba89d794e027c183dd4f41da723da69cd05e8bc272b455130ced8bd76460ca91962202021-05-27 2:31:1016 days 11 hrs ago0x8071d5b2d41edad16cbc2e76323781b607f19925OUT 0xd03c8f89de052256ab1d840cbde7e1e43b59a3450 BNB0.0076909
0x9101e3693f07f7323eb21ddf7ee8ca806a41323c7259266ebf3d718e1836c38e91962162021-05-27 2:30:5816 days 11 hrs ago0x8071d5b2d41edad16cbc2e76323781b607f19925OUT 0x50ba517d64caa5e4fc30b8a010a92fdeed468e9b0 BNB0.00029203
0x84d92adeb2f310b1f9cf5e2d52c37e79192c9f3749afcce891e7259b4bd0d43791939262021-05-27 0:36:2816 days 12 hrs ago0x8071d5b2d41edad16cbc2e76323781b607f19925OUT 0xd03c8f89de052256ab1d840cbde7e1e43b59a3450 BNB0.00821475
0x23232d1b93478601a26a8bcb5d5f19a1a737394ac733323ad8385a5fea213e5891939232021-05-27 0:36:1916 days 12 hrs ago0x8071d5b2d41edad16cbc2e76323781b607f19925OUT 0x50ba517d64caa5e4fc30b8a010a92fdeed468e9b0 BNB0.00029203
0x4a56d9005ac09fea9c3011aadbc91eb2c85a637d9000a091d85213f5f0dee83e91883222021-05-26 19:56:1616 days 17 hrs ago0x8071d5b2d41edad16cbc2e76323781b607f19925OUT 0xd03c8f89de052256ab1d840cbde7e1e43b59a3450 BNB0.00751745
0x963f4bc04453a7ca9eed3f95695ecac1eeee30bb5c69c6eac93ff63b1d72d98191883202021-05-26 19:56:1016 days 17 hrs ago0x8071d5b2d41edad16cbc2e76323781b607f19925OUT 0x50ba517d64caa5e4fc30b8a010a92fdeed468e9b0 BNB0.00029203
0x3ffb33a222302bb59d1ed26c44b03c41f96e58b422c0d0e99a5c2545fe2a34ee91835172021-05-26 15:56:0116 days 21 hrs ago0x8071d5b2d41edad16cbc2e76323781b607f19925OUT 0xd03c8f89de052256ab1d840cbde7e1e43b59a3450 BNB0.00751735
0xdf289abcea8bafa40134921fe273eae4314e9a76fc0d2477de323660668a208591835152021-05-26 15:55:5516 days 21 hrs ago0x8071d5b2d41edad16cbc2e76323781b607f19925OUT 0x50ba517d64caa5e4fc30b8a010a92fdeed468e9b0 BNB0.00029203
0xbe12fad3ab63fc1ffeb04cfdb2df55b5f059e7e7fb09e002e0860870cfb4bae491816082021-05-26 14:20:3416 days 23 hrs ago0x8071d5b2d41edad16cbc2e76323781b607f19925OUT 0xd03c8f89de052256ab1d840cbde7e1e43b59a3450 BNB0.0076909
[ Download CSV Export 
Parent Txn Hash Block From To Value
Loading

Contract Name:
0 BNB

Compiler Version
0

Optimization Enabled:
0 BNB

Other Settings:
-NA-
Block Transaction Gas Used Reward
Age Block Fee Address BC Fee Address Voting Power Jailed Incoming
Block Uncle Number Difficulty Gas Used Reward
Loading